Time;durP1;ratioP1;P1;durP2;ratioP2;P2;SDS_P1;SDS_P2;PMS_P1;PMS_P2;Temp;Humidity;BMP_temperature;BMP_pressure;BME280_temperature;BME280_humidity;BME280_pressure;Samples;Min_cycle;Max_cycle;Signal;HPM_P1;HPM_P2
2022/01/01 00:02:37;;;;;;;10.95;6.03;;;;;;;12.55;100.00;98982.33;4221363;83;28517;-80
2022/01/01 00:08:38;;;;;;;9.58;5.50;;;;;;;12.50;100.00;98976.87;4198810;83;28555;-80
2022/01/01 00:14:40;;;;;;;10.55;5.85;;;;;;;12.46;100.00;98985.14;4190020;82;28581;-80
2022/01/01 00:20:41;;;;;;;11.08;6.20;;;;;;;12.52;100.00;98976.88;4189741;83;28531;-80
2022/01/01 00:26:42;;;;;;;11.53;6.28;;;;;;;12.35;100.00;98964.75;4190974;83;28571;-80
2022/01/01 00:32:43;;;;;;;14.50;7.20;;;;;;;11.93;100.00;98974.51;4187225;83;28562;-80
2022/01/01 00:38:45;;;;;;;14.20;7.28;;;;;;;11.89;100.00;98987.64;4204079;83;28519;-81
2022/01/01 00:44:46;;;;;;;12.93;7.30;;;;;;;11.86;100.00;98984.09;4176023;83;28521;-81
2022/01/01 00:50:48;;;;;;;12.70;7.22;;;;;;;11.80;100.00;98978.31;4187479;83;28551;-82
2022/01/01 00:56:50;;;;;;;13.25;7.40;;;;;;;11.76;100.00;98987.94;4212127;83;28557;-83
2022/01/01 01:02:51;;;;;;;13.60;7.47;;;;;;;11.80;100.00;98992.61;4194518;83;28509;-76
2022/01/01 01:08:55;;;;;;;14.73;7.45;;;;;;;11.67;100.00;98988.31;4191074;83;28528;-82
2022/01/01 01:14:56;;;;;;;13.78;7.90;;;;;;;11.66;100.00;99002.00;4202878;83;28582;-82
2022/01/01 01:20:58;;;;;;;16.02;8.05;;;;;;;11.77;100.00;99000.34;4275010;82;28537;-84
2022/01/01 01:27:02;;;;;;;14.47;7.58;;;;;;;11.75;100.00;98993.04;4267418;82;28546;-85
2022/01/01 01:33:03;;;;;;;14.93;7.92;;;;;;;11.76;100.00;98995.47;4263352;82;28522;-85
2022/01/01 01:39:05;;;;;;;14.95;7.20;;;;;;;11.79;100.00;98997.70;4271883;82;28521;-83
2022/01/01 01:45:12;;;;;;;14.35;7.83;;;;;;;11.60;100.00;99000.28;4255098;82;28542;-83
2022/01/01 01:51:11;;;;;;;17.00;8.20;;;;;;;11.80;100.00;99024.93;4261875;82;28485;-83
2022/01/01 01:57:13;;;;;;;14.68;7.90;;;;;;;11.55;100.00;99032.77;4290251;82;28489;-83
2022/01/01 02:03:14;;;;;;;16.50;8.93;;;;;;;11.69;100.00;99049.48;4269557;82;28530;-84
2022/01/01 02:09:16;;;;;;;18.10;9.88;;;;;;;11.58;100.00;99047.64;4264122;82;28484;-84
2022/01/01 02:21:40;;;;;;;21.48;11.43;;;;;;;11.50;100.00;99059.59;4106106;85;28534;-85
2022/01/01 02:27:42;;;;;;;20.82;11.08;;;;;;;11.51;100.00;99061.23;4191779;83;28510;-83
2022/01/01 02:33:44;;;;;;;18.90;10.55;;;;;;;11.67;100.00;99069.11;4188845;83;28538;-83
2022/01/01 02:39:45;;;;;;;23.65;13.18;;;;;;;11.53;100.00;99063.70;4211076;83;28537;-84
2022/01/01 02:45:46;;;;;;;21.62;11.97;;;;;;;11.51;100.00;99083.31;4205392;83;28446;-84
2022/01/01 02:51:47;;;;;;;20.23;11.10;;;;;;;11.47;100.00;99090.20;4086411;85;28483;-84
2022/01/01 02:57:48;;;;;;;19.67;11.03;;;;;;;11.52;100.00;99084.41;4044989;86;28546;-84
2022/01/01 03:03:50;;;;;;;19.15;10.68;;;;;;;11.80;100.00;99094.13;4209883;83;28505;-85
2022/01/01 03:09:51;;;;;;;16.48;9.00;;;;;;;11.69;100.00;99093.92;4188920;83;28482;-85
2022/01/01 03:15:53;;;;;;;17.87;10.05;;;;;;;11.67;100.00;99098.73;4192688;82;28525;-82
2022/01/01 03:21:54;;;;;;;15.95;9.48;;;;;;;11.58;100.00;99102.33;4258847;82;28491;-82
2022/01/01 03:27:56;;;;;;;16.95;9.30;;;;;;;11.42;100.00;99101.68;4270506;82;28491;-79
2022/01/01 03:33:58;;;;;;;15.75;9.83;;;;;;;11.94;100.00;99098.22;4282581;82;28485;-81
2022/01/01 03:39:59;;;;;;;15.30;8.53;;;;;;;11.93;100.00;99107.36;4267454;82;28521;-81
2022/01/01 03:46:02;;;;;;;16.45;8.40;;;;;;;11.94;100.00;99119.77;4275134;82;28546;-83
2022/01/01 03:52:04;;;;;;;13.55;7.80;;;;;;;11.91;100.00;99125.61;4267801;82;28529;-83
2022/01/01 03:58:05;;;;;;;12.70;7.53;;;;;;;11.92;100.00;99133.18;4259793;82;28540;-84
2022/01/01 04:04:06;;;;;;;12.98;7.85;;;;;;;12.04;100.00;99153.41;4266447;82;28517;-83
2022/01/01 04:10:10;;;;;;;11.53;7.33;;;;;;;11.93;100.00;99158.55;4262642;82;28560;-84
2022/01/01 04:16:12;;;;;;;13.05;6.70;;;;;;;11.86;100.00;99158.65;4249760;82;28482;-83
2022/01/01 04:22:16;;;;;;;10.38;6.55;;;;;;;11.90;100.00;99158.20;4225763;82;28479;-83
2022/01/01 04:28:17;;;;;;;9.98;6.08;;;;;;;11.98;100.00;99163.23;4227792;82;28502;-83
2022/01/01 04:34:18;;;;;;;13.38;6.67;;;;;;;12.50;100.00;99166.98;4261181;82;28491;-85
2022/01/01 04:40:20;;;;;;;12.45;6.92;;;;;;;11.83;100.00;99157.78;4217536;82;28544;-82
2022/01/01 04:46:21;;;;;;;9.43;6.33;;;;;;;11.97;100.00;99169.13;4218284;82;28533;-83
2022/01/01 04:52:23;;;;;;;11.00;6.67;;;;;;;12.04;100.00;99177.11;4211814;82;28518;-84
2022/01/01 04:58:24;;;;;;;9.15;5.85;;;;;;;11.88;100.00;99175.94;4234386;83;28541;-83
2022/01/01 05:04:26;;;;;;;11.85;6.47;;;;;;;11.87;100.00;99175.64;4235442;82;28516;-84
2022/01/01 05:10:27;;;;;;;11.22;6.17;;;;;;;11.85;100.00;99183.16;4219505;82;28524;-82
2022/01/01 05:16:28;;;;;;;8.08;5.70;;;;;;;11.84;100.00;99182.86;4229048;81;28507;-83
2022/01/01 05:22:29;;;;;;;7.70;5.10;;;;;;;11.88;100.00;99186.71;4283044;81;28570;-81
2022/01/01 05:28:31;;;;;;;10.15;6.03;;;;;;;11.97;100.00;99193.89;4283428;81;28500;-82
2022/01/01 05:34:32;;;;;;;7.60;5.10;;;;;;;11.89;100.00;99196.42;4281396;81;28528;-85
2022/01/01 05:40:33;;;;;;;9.48;5.53;;;;;;;11.99;100.00;99198.55;4284375;81;28597;-84
2022/01/01 05:46:35;;;;;;;8.55;5.87;;;;;;;12.06;100.00;99201.14;4286260;81;28523;-82
2022/01/01 05:52:36;;;;;;;8.65;5.62;;;;;;;12.09;100.00;99215.48;4302400;81;28562;-83
2022/01/01 05:58:38;;;;;;;8.55;5.10;;;;;;;12.23;100.00;99229.52;4308173;81;28997;-82
2022/01/01 06:04:39;;;;;;;8.40;5.92;;;;;;;12.08;100.00;99232.70;4277491;81;28534;-84
2022/01/01 06:10:40;;;;;;;8.55;5.85;;;;;;;11.99;100.00;99224.14;4287703;81;28461;-82
2022/01/01 06:16:42;;;;;;;9.93;6.25;;;;;;;12.01;100.00;99227.41;4293460;81;28515;-82
2022/01/01 06:22:43;;;;;;;7.70;5.53;;;;;;;12.03;100.00;99232.58;4188808;83;28526;-84
2022/01/01 06:28:44;;;;;;;7.92;4.92;;;;;;;11.90;100.00;99243.06;4193983;83;28598;-84
2022/01/01 06:34:46;;;;;;;6.62;4.10;;;;;;;11.91;100.00;99242.81;4196834;83;28530;-82
2022/01/01 06:40:49;;;;;;;7.65;4.10;;;;;;;11.82;100.00;99255.02;4193051;83;28485;-83
2022/01/01 06:46:51;;;;;;;4.35;3.05;;;;;;;11.73;100.00;99263.15;4212051;83;28500;-82
2022/01/01 06:52:52;;;;;;;5.78;3.40;;;;;;;11.88;100.00;99274.81;4202411;83;28512;-82
2022/01/01 06:58:54;;;;;;;6.12;3.47;;;;;;;11.89;100.00;99278.59;4186773;83;28496;-83
2022/01/01 07:04:55;;;;;;;5.72;3.70;;;;;;;11.86;100.00;99284.47;4192951;83;28523;-82
2022/01/01 07:10:56;;;;;;;7.28;3.80;;;;;;;11.94;100.00;99292.72;4194753;83;28538;-86
2022/01/01 07:16:57;;;;;;;5.15;3.52;;;;;;;11.85;100.00;99316.50;4197116;83;28584;-86
2022/01/01 07:22:59;;;;;;;5.42;3.62;;;;;;;11.93;100.00;99312.64;4215649;83;28518;-86
2022/01/01 07:29:00;;;;;;;5.47;3.62;;;;;;;11.91;100.00;99312.05;4236057;83;28493;-84
2022/01/01 07:35:01;;;;;;;6.97;4.30;;;;;;;11.91;100.00;99329.02;4234661;83;28512;-84
2022/01/01 07:41:03;;;;;;;8.65;4.70;;;;;;;11.93;100.00;99338.23;4224022;83;28468;-84
2022/01/01 07:47:05;;;;;;;7.90;5.10;;;;;;;11.81;100.00;99326.92;4199966;83;28514;-84
2022/01/01 07:53:08;;;;;;;8.38;5.60;;;;;;;11.96;100.00;99344.50;4199452;83;28504;-81
2022/01/01 07:59:09;;;;;;;8.35;5.55;;;;;;;12.07;100.00;99345.61;4202816;83;28555;-81
2022/01/01 08:05:13;;;;;;;11.35;6.55;;;;;;;11.85;100.00;99356.37;4204835;83;28556;-78
2022/01/01 08:11:14;;;;;;;10.35;6.55;;;;;;;12.06;100.00;99357.44;4201851;83;28530;-80
2022/01/01 08:17:15;;;;;;;10.68;6.17;;;;;;;12.10;100.00;99359.44;4201558;83;28572;-79
2022/01/01 08:23:16;;;;;;;11.28;6.97;;;;;;;12.04;100.00;99368.98;4197074;82;28555;-81
2022/01/01 08:29:18;;;;;;;11.65;5.92;;;;;;;12.21;100.00;99378.00;4196548;82;28475;-82
2022/01/01 08:35:19;;;;;;;10.03;5.47;;;;;;;11.97;100.00;99377.12;4237544;82;28579;-79
2022/01/01 08:41:21;;;;;;;9.25;5.40;;;;;;;12.16;100.00;99383.28;4180760;82;28595;-81
2022/01/01 08:47:25;;;;;;;9.65;5.35;;;;;;;12.16;100.00;99387.33;4203537;82;28554;-76
2022/01/01 08:53:25;;;;;;;9.45;5.10;;;;;;;12.21;100.00;99392.83;4192552;82;28540;-81
2022/01/01 08:59:27;;;;;;;8.83;5.22;;;;;;;12.27;100.00;99404.55;4204243;82;28549;-81
2022/01/01 09:05:29;;;;;;;8.35;5.40;;;;;;;12.29;100.00;99401.13;4197399;82;28524;-78
2022/01/01 09:11:30;;;;;;;9.10;4.72;;;;;;;12.36;100.00;99406.39;4195143;82;28558;-78
2022/01/01 09:17:32;;;;;;;6.92;4.45;;;;;;;12.08;100.00;99396.59;4206726;82;28563;-79
2022/01/01 09:23:33;;;;;;;8.53;5.10;;;;;;;12.38;100.00;99402.94;4195794;82;28518;-78
2022/01/01 09:29:34;;;;;;;9.00;5.42;;;;;;;12.43;100.00;99417.87;4194844;82;28526;-87
2022/01/01 09:35:36;;;;;;;8.68;4.60;;;;;;;12.44;100.00;99422.74;4128354;84;28479;-88
2022/01/01 09:41:41;;;;;;;7.00;4.40;;;;;;;12.40;100.00;99429.13;4114111;85;28554;-80
2022/01/01 09:47:42;;;;;;;6.72;4.05;;;;;;;12.21;100.00;99429.77;4153337;83;28514;-79
2022/01/01 09:53:44;;;;;;;7.00;3.77;;;;;;;12.37;100.00;99424.21;4144084;84;28537;-81
2022/01/01 09:59:46;;;;;;;5.67;3.80;;;;;;;12.27;100.00;99430.16;4189391;82;28535;-79
2022/01/01 10:06:06;;;;;;;7.62;4.37;;;;;;;12.51;100.00;99439.09;4193623;82;28516;-77
2022/01/01 10:12:12;;;;;;;7.00;4.28;;;;;;;12.40;100.00;99445.30;4193712;82;28566;-78
2022/01/01 10:18:13;;;;;;;8.73;5.27;;;;;;;12.35;100.00;99455.44;4193082;82;28544;-81
2022/01/01 10:24:19;;;;;;;9.55;6.10;;;;;;;12.44;100.00;99445.67;4192688;83;28562;-79
2022/01/01 10:30:36;;;;;;;10.15;6.05;;;;;;;12.49;100.00;99456.05;4189070;83;28592;-77
2022/01/01 10:36:38;;;;;;;10.38;5.92;;;;;;;12.51;100.00;99453.93;4113999;85;28548;-76
2022/01/01 10:42:44;;;;;;;9.88;5.78;;;;;;;12.48;100.00;99444.97;4196255;83;28538;-83
2022/01/01 10:49:09;;;;;;;11.57;6.62;;;;;;;12.58;100.00;99454.36;4185625;83;28533;-83
2022/01/01 10:55:02;;;;;;;10.63;6.60;;;;;;;12.57;100.00;99442.73;4197503;83;28515;-82
2022/01/01 11:01:08;;;;;;;11.60;7.67;;;;;;;12.74;100.00;99443.39;4195772;83;28569;-83
2022/01/01 11:07:09;;;;;;;12.00;7.17;;;;;;;12.72;100.00;99446.86;4198641;83;28596;-84
2022/01/01 11:13:13;;;;;;;10.80;6.47;;;;;;;12.49;100.00;99446.61;4188689;83;28514;-86
2022/01/01 11:19:15;;;;;;;10.08;5.75;;;;;;;12.58;100.00;99455.70;4204331;83;28498;-85
2022/01/01 11:25:18;;;;;;;9.25;4.92;;;;;;;12.72;100.00;99438.22;4182180;83;28537;-86
2022/01/01 11:31:21;;;;;;;7.20;4.25;;;;;;;12.88;100.00;99446.13;4203275;83;28550;-83
2022/01/01 11:37:23;;;;;;;7.35;4.53;;;;;;;12.73;100.00;99446.59;4197208;83;28543;-84
2022/01/01 11:43:42;;;;;;;6.80;4.22;;;;;;;12.65;100.00;99445.08;4202854;83;28525;-83
2022/01/01 11:49:48;;;;;;;6.75;4.25;;;;;;;12.74;100.00;99439.34;4184036;83;28534;-86
2022/01/01 11:56:08;;;;;;;7.70;4.77;;;;;;;13.02;100.00;99438.59;4205228;83;28559;-87
2022/01/01 12:02:29;;;;;;;6.53;4.62;;;;;;;13.01;100.00;99439.66;4198400;83;28565;-85
2022/01/01 12:08:42;;;;;;;8.03;5.05;;;;;;;12.92;100.00;99447.83;4204214;83;28488;-86
2022/01/01 12:14:45;;;;;;;7.72;4.85;;;;;;;12.95;100.00;99446.83;4191276;83;28500;-86
2022/01/01 12:20:57;;;;;;;9.13;5.47;;;;;;;12.97;100.00;99452.80;4189900;83;28503;-85
2022/01/01 12:26:57;;;;;;;8.70;4.90;;;;;;;13.04;100.00;99458.07;4200889;83;28538;-86
2022/01/01 12:32:59;;;;;;;6.72;4.40;;;;;;;13.23;100.00;99457.41;4196352;83;28570;-85
2022/01/01 12:39:07;;;;;;;9.40;4.87;;;;;;;13.23;100.00;99445.26;4209352;83;28499;-85
2022/01/01 12:45:08;;;;;;;6.65;4.62;;;;;;;13.43;100.00;99442.65;4202343;83;28483;-84
2022/01/01 12:51:23;;;;;;;7.92;5.35;;;;;;;13.26;100.00;99445.29;4199613;83;28549;-83
2022/01/01 12:57:25;;;;;;;8.23;5.50;;;;;;;13.20;100.00;99454.36;4192150;83;28557;-83
2022/01/01 13:03:26;;;;;;;9.05;5.70;;;;;;;13.15;100.00;99464.52;4190214;83;28528;-84
2022/01/01 13:09:29;;;;;;;9.45;5.75;;;;;;;12.95;100.00;99475.16;4197391;83;28516;-82
2022/01/01 13:15:35;;;;;;;10.25;6.15;;;;;;;13.13;100.00;99471.20;4193430;83;28508;-85
2022/01/01 13:21:37;;;;;;;10.93;6.92;;;;;;;13.09;100.00;99480.30;4195236;83;28550;-85
2022/01/01 13:27:39;;;;;;;12.93;7.67;;;;;;;13.01;100.00;99494.98;4197669;83;28555;-82
2022/01/01 13:33:50;;;;;;;10.93;6.97;;;;;;;12.92;100.00;99504.50;4197475;83;28506;-81
2022/01/01 13:39:56;;;;;;;9.65;6.78;;;;;;;12.91;100.00;99512.30;4115415;84;28554;-84
2022/01/01 13:46:08;;;;;;;14.83;8.18;;;;;;;12.82;100.00;99510.49;4199926;83;28487;-82
2022/01/01 13:52:31;;;;;;;12.07;7.60;;;;;;;12.68;100.00;99522.03;4207564;83;28544;-86
2022/01/01 13:58:48;;;;;;;11.35;6.97;;;;;;;12.60;100.00;99527.77;4190304;83;28573;-81
2022/01/01 14:04:49;;;;;;;12.40;7.47;;;;;;;12.84;100.00;99529.97;4190553;83;28510;-84
2022/01/01 14:10:56;;;;;;;12.60;7.37;;;;;;;12.91;100.00;99533.38;4220363;83;28548;-83
2022/01/01 14:16:57;;;;;;;;;;;;;;;12.79;100.00;99550.06;4204362;83;28533;-82
2022/01/01 14:23:02;;;;;;;9.85;7.45;;;;;;;12.68;100.00;99560.61;4195487;83;20274;-84
2022/01/01 14:29:04;;;;;;;10.70;7.30;;;;;;;12.74;100.00;99571.00;4197298;83;28502;-84
2022/01/01 14:35:06;;;;;;;11.30;7.20;;;;;;;12.66;100.00;99579.45;4194665;83;28518;-83
2022/01/01 14:41:10;;;;;;;12.18;7.40;;;;;;;12.36;100.00;99576.27;4199065;83;28501;-82
2022/01/01 14:47:35;;;;;;;13.62;8.28;;;;;;;12.60;100.00;99580.36;4195059;83;28554;-84
2022/01/01 14:54:00;;;;;;;11.38;7.90;;;;;;;12.60;100.00;99580.36;4194041;83;28575;-85
2022/01/01 15:00:08;;;;;;;12.45;8.08;;;;;;;12.57;100.00;99588.38;4188455;83;28886;-86
2022/01/01 15:06:09;;;;;;;14.10;8.98;;;;;;;12.48;100.00;99591.95;4193241;83;28561;-86
2022/01/01 15:12:11;;;;;;;14.47;8.63;;;;;;;12.43;100.00;99601.23;4213911;83;28488;-84
2022/01/01 15:18:13;;;;;;;12.47;7.75;;;;;;;12.45;100.00;99616.69;4195360;83;28621;-84
2022/01/01 15:24:18;;;;;;;14.43;7.83;;;;;;;12.36;100.00;99625.60;4188215;83;28496;-86
2022/01/01 15:36:35;;;;;;;11.95;7.17;;;;;;;12.37;100.00;99652.05;4192207;82;28522;-86
2022/01/01 15:42:28;;;;;;;11.48;6.72;;;;;;;12.22;100.00;99665.39;4181928;83;28590;-85
2022/01/01 15:48:31;;;;;;;10.08;6.30;;;;;;;12.22;100.00;99667.28;4190058;83;28588;-78
2022/01/01 15:54:32;;;;;;;9.33;5.40;;;;;;;12.26;100.00;99672.50;4196245;83;28534;-81
2022/01/01 16:00:36;;;;;;;9.10;5.92;;;;;;;12.29;100.00;99678.81;4195996;83;28557;-77
2022/01/01 16:06:40;;;;;;;10.20;5.45;;;;;;;12.25;100.00;99689.22;4191626;83;28574;-76
2022/01/01 16:12:45;;;;;;;10.18;5.60;;;;;;;12.13;100.00;99689.66;4195277;83;28555;-71
2022/01/01 16:18:51;;;;;;;9.63;5.47;;;;;;;12.11;100.00;99689.06;4191437;82;28529;-82
2022/01/01 16:24:56;;;;;;;10.68;6.40;;;;;;;12.22;100.00;99686.15;4195846;82;28542;-73
2022/01/01 16:30:58;;;;;;;10.03;6.15;;;;;;;12.16;100.00;99691.09;4194245;82;28607;-74
2022/01/01 16:37:01;;;;;;;11.43;7.17;;;;;;;12.17;100.00;99686.83;4198048;82;28566;-77
2022/01/01 16:43:07;;;;;;;13.00;7.78;;;;;;;12.19;100.00;99688.77;4226117;82;28515;-81
2022/01/01 16:49:19;;;;;;;14.68;8.65;;;;;;;12.13;100.00;99697.23;4062296;85;28579;-77
2022/01/01 16:55:35;;;;;;;13.03;8.58;;;;;;;12.16;100.00;99702.70;4138133;84;28540;-76
2022/01/01 17:01:41;;;;;;;13.05;7.80;;;;;;;12.08;100.00;99713.78;4129008;84;28550;-79
2022/01/01 17:07:42;;;;;;;15.70;8.30;;;;;;;12.04;100.00;99716.09;4122248;84;28551;-78
2022/01/01 17:13:44;;;;;;;16.32;8.88;;;;;;;11.96;100.00;99710.96;4116313;84;28511;-81
2022/01/01 17:20:02;;;;;;;12.53;7.70;;;;;;;12.03;100.00;99714.45;4130181;84;28542;-82
2022/01/01 17:26:04;;;;;;;16.75;9.15;;;;;;;11.94;100.00;99723.84;4119711;84;28528;-83
2022/01/01 17:32:07;;;;;;;13.68;7.83;;;;;;;11.97;100.00;99717.48;4124842;84;28632;-82
2022/01/01 17:44:27;;;;;;;13.83;8.48;;;;;;;12.15;100.00;99724.48;4123630;84;28539;-83
2022/01/01 17:50:31;;;;;;;13.72;8.13;;;;;;;12.37;100.00;99723.52;4207177;82;28629;-85
2022/01/01 17:56:32;;;;;;;16.50;9.20;;;;;;;12.55;100.00;99734.80;4210050;82;28521;-79
2022/01/01 18:02:34;;;;;;;15.58;9.35;;;;;;;12.60;100.00;99743.55;4197901;83;28553;-79
2022/01/01 18:08:38;;;;;;;16.32;9.63;;;;;;;12.53;100.00;99739.60;4204513;82;28551;-83
2022/01/01 18:14:41;;;;;;;16.95;9.85;;;;;;;12.56;100.00;99749.92;4211426;82;28476;-80
2022/01/01 18:20:44;;;;;;;19.62;11.38;;;;;;;12.70;100.00;99746.54;4199194;82;28546;-81
2022/01/01 18:26:56;;;;;;;18.82;10.68;;;;;;;12.67;100.00;99763.19;4272910;82;28491;-85
2022/01/01 18:32:59;;;;;;;20.45;11.55;;;;;;;12.64;100.00;99775.77;4196665;82;28546;-81
2022/01/01 18:39:01;;;;;;;20.37;12.18;;;;;;;12.52;100.00;99783.27;4210266;82;28538;-82
2022/01/01 18:45:06;;;;;;;23.92;13.18;;;;;;;12.67;100.00;99787.47;4199320;82;28454;-83
2022/01/01 18:51:21;;;;;;;25.12;14.00;;;;;;;12.36;100.00;99789.28;4203246;82;28520;-77
2022/01/01 18:57:28;;;;;;;24.72;14.23;;;;;;;12.45;100.00;99784.40;4198943;82;28901;-83
2022/01/01 19:03:32;;;;;;;25.00;14.73;;;;;;;12.48;100.00;99789.34;4191742;82;28544;-80
2022/01/01 19:09:43;;;;;;;25.30;14.68;;;;;;;12.51;100.00;99785.66;4207131;82;28534;-82
2022/01/01 19:15:55;;;;;;;24.25;14.47;;;;;;;12.35;100.00;99786.28;4219390;82;28521;-82
2022/01/01 19:21:58;;;;;;;20.82;13.05;;;;;;;12.13;100.00;99801.52;4226021;82;28579;-82
2022/01/01 19:28:03;;;;;;;24.30;13.83;;;;;;;12.17;100.00;99806.78;4266712;82;28586;-78
2022/01/01 19:34:06;;;;;;;24.10;14.40;;;;;;;12.16;100.00;99813.23;4268771;82;28540;-80
2022/01/01 19:40:09;;;;;;;22.05;13.98;;;;;;;12.21;100.00;99813.37;4257278;82;28529;-80
2022/01/01 19:46:17;;;;;;;23.25;14.50;;;;;;;12.14;100.00;99815.33;4261131;82;28508;-82
2022/01/01 19:52:19;;;;;;;24.63;14.78;;;;;;;12.15;100.00;99821.52;4259084;82;28594;-77
2022/01/01 19:58:20;;;;;;;24.70;15.72;;;;;;;12.23;100.00;99825.28;4260757;82;28528;-80
2022/01/01 20:04:22;;;;;;;27.05;16.12;;;;;;;12.13;100.00;99820.39;4269044;82;28578;-78
2022/01/01 20:10:25;;;;;;;23.62;14.63;;;;;;;12.06;100.00;99828.54;4260104;82;28505;-88
2022/01/01 20:16:29;;;;;;;27.15;15.40;;;;;;;12.12;100.00;99826.31;4285304;82;28924;-87
2022/01/01 20:22:31;;;;;;;24.82;14.95;;;;;;;12.13;100.00;99831.17;4241590;82;28570;-78
2022/01/01 20:28:33;;;;;;;26.77;16.15;;;;;;;12.04;100.00;99833.33;4111834;85;28602;-79
2022/01/01 20:34:34;;;;;;;22.98;14.95;;;;;;;12.14;100.00;99844.98;4113668;85;28505;-78
2022/01/01 20:40:36;;;;;;;25.65;16.20;;;;;;;12.21;100.00;99853.00;4192310;83;28551;-76
2022/01/01 20:46:38;;;;;;;28.10;17.62;;;;;;;12.11;100.00;99854.83;4115302;85;28509;-77
2022/01/01 20:52:39;;;;;;;29.98;17.40;;;;;;;11.97;100.00;99858.13;4054511;86;28581;-76
2022/01/01 20:58:41;;;;;;;32.88;19.07;;;;;;;11.95;100.00;99857.02;4197157;83;28615;-82
2022/01/01 21:04:45;;;;;;;30.45;17.82;;;;;;;12.08;100.00;99856.13;4184942;83;28556;-78
2022/01/01 21:10:47;;;;;;;29.67;17.90;;;;;;;12.00;100.00;99861.75;4185908;83;28526;-82
2022/01/01 21:16:52;;;;;;;30.15;17.00;;;;;;;12.14;100.00;99857.11;4187811;83;28554;-86
2022/01/01 21:22:55;;;;;;;26.87;16.65;;;;;;;11.97;100.00;99857.63;4220211;82;28536;-85
2022/01/01 21:28:56;;;;;;;29.15;16.95;;;;;;;12.08;100.00;99854.77;4266901;82;28495;-86
2022/01/01 21:34:58;;;;;;;28.40;16.82;;;;;;;12.08;100.00;99866.91;4259777;82;28517;-88
2022/01/01 21:41:00;;;;;;;29.70;16.17;;;;;;;12.25;100.00;99861.77;4277403;82;28508;-81
2022/01/01 21:47:01;;;;;;;26.77;16.20;;;;;;;12.07;100.00;99860.38;4257036;82;28484;-86
2022/01/01 21:53:03;;;;;;;26.17;15.30;;;;;;;11.91;100.00;99872.50;4270731;82;28570;-85
2022/01/01 21:59:04;;;;;;;25.40;14.68;;;;;;;11.93;100.00;99875.80;4259434;82;28527;-87
2022/01/01 22:05:06;;;;;;;26.70;14.90;;;;;;;11.96;100.00;99879.39;4267335;82;28525;-87
2022/01/01 22:11:08;;;;;;;29.10;15.18;;;;;;;11.85;100.00;99875.01;4278388;81;28555;-86
2022/01/01 22:17:09;;;;;;;30.92;16.25;;;;;;;11.89;100.00;99881.33;4263371;82;28525;-86
2022/01/01 22:23:11;;;;;;;31.35;16.87;;;;;;;12.01;100.00;99886.30;4237513;82;28556;-88
2022/01/01 22:29:12;;;;;;;30.25;16.77;;;;;;;11.79;100.00;99886.68;4188661;83;28540;-86
2022/01/01 22:35:13;;;;;;;29.45;18.02;;;;;;;11.94;100.00;99885.02;4193128;83;28554;-88
2022/01/01 22:41:15;;;;;;;34.40;18.57;;;;;;;11.78;100.00;99883.69;4104080;85;28466;-87
2022/01/01 22:47:18;;;;;;;32.70;17.67;;;;;;;11.90;100.00;99884.33;4057994;86;28502;-87
2022/01/01 22:53:19;;;;;;;34.50;18.85;;;;;;;11.85;100.00;99880.40;4191575;83;28549;-89
2022/01/01 22:59:20;;;;;;;41.92;19.75;;;;;;;11.85;100.00;99877.70;4187678;83;28528;-89
2022/01/01 23:05:22;;;;;;;35.88;19.67;;;;;;;11.87;100.00;99876.15;4122862;85;28506;-89
2022/01/01 23:11:24;;;;;;;44.27;21.85;;;;;;;11.93;100.00;99877.14;4186144;83;28537;-89
2022/01/01 23:17:35;;;;;;;41.70;20.92;;;;;;;11.76;100.00;99879.55;4119781;85;28462;-90
2022/01/01 23:23:31;;;;;;;38.60;20.10;;;;;;;11.85;100.00;99876.89;4223820;81;28501;-88
2022/01/01 23:29:35;;;;;;;39.20;20.50;;;;;;;11.92;100.00;99874.98;4286496;81;28495;-87
2022/01/01 23:35:48;;;;;;;34.75;19.73;;;;;;;11.91;100.00;99870.61;4247377;81;28508;-87
2022/01/01 23:41:43;;;;;;;39.73;20.55;;;;;;;12.00;100.00;99863.09;4263915;81;28529;-87
2022/01/01 23:47:44;;;;;;;38.23;21.30;;;;;;;11.87;100.00;99865.38;4278955;81;28492;-88
2022/01/01 23:54:02;;;;;;;38.35;20.77;;;;;;;12.02;100.00;99866.42;4282122;81;28576;-88
